NCAR-RAP Real-Time Weather Data

Output produced by METARs form (12 May 2021  12:13 UTC)
found at http://weather.rap.ucar.edu/surface/
 
KPUB 121201Z 12004KT 10SM OVC006 05/04 A3032 RMK AO2 CIG 004V007 T00500039
KPUB 121153Z 12005KT 9SM OVC004 05/04 A3032 RMK AO2 RAE04 CIG 004V007 SLP264 P0000 60000 70005 T00500039 10056 20050 53002
KPUB 121106Z AUTO 13003KT 6SM BR BKN004 BKN012 OVC019 05/04 A3031 RMK AO2 RAE04 P0000 T00500039
KPUB 121053Z AUTO 13003KT 2SM -RA BR BKN004 BKN017 OVC033 05/04 A3031 RMK AO2 RAB47 SLP263 P0000 T00500039
KPUB 121051Z AUTO 12003KT 2SM -RA BR BKN004 BKN017 OVC033 05/04 A3031 RMK AO2 RAB47 P0000
KPUB 121038Z AUTO 12004KT 4SM BR BKN005 BKN017 OVC033 05/04 A3031 RMK AO2 T00500039
KPUB 121031Z AUTO 12005KT 5SM BR SCT006 BKN017 OVC033 05/04 A3032 RMK AO2 T00500039
KPUB 120953Z AUTO 14005KT 10SM OVC005 06/04 A3032 RMK AO2 CIG 004V009 SLP264 T00560039
KPUB 120853Z AUTO 12005KT 10SM BKN006 OVC013 06/04 A3031 RMK AO2 CIG 004V008 SLP263 T00560039 58006
KPUB 120813Z AUTO 11005KT 10SM SCT007 OVC012 06/04 A3032 RMK AO2 T00560039
KPUB 120753Z AUTO 13006KT 10SM OVC009 06/04 A3033 RMK AO2 CIG 005V013 SLP267 T00560039
KPUB 120732Z AUTO 13008KT 10SM BKN006 OVC042 06/04 A3033 RMK AO2 CIG 005V010 T00560039
KPUB 120716Z AUTO 12008KT 10SM FEW006 SCT018 OVC042 06/04 A3033 RMK AO2 T00560039
KPUB 120653Z AUTO 12006KT 10SM FEW009 BKN016 OVC043 06/04 A3033 RMK AO2 SLP272 T00560039 400670017
KPUB 120630Z AUTO 13004KT 10SM OVC016 06/04 A3034 RMK AO2 T00560039
KPUB 120620Z AUTO 13006KT 10SM FEW008 OVC014 06/04 A3034 RMK AO2 T00560039
KPUB 120609Z AUTO 14006KT 10SM SCT009 OVC015 06/04 A3034 RMK AO2 T00560039
KPUB 120553Z AUTO 13006KT 10SM BKN009 OVC015 06/04 A3034 RMK AO2 CIG 006V014 SLP271 T00560039 10067 20056 51005
KPUB 120546Z AUTO 13005KT 10SM BKN007 OVC015 06/04 A3034 RMK AO2 CIG 006V012 T00560039
KPUB 120519Z AUTO 15005KT 10SM FEW007 BKN017 OVC023 06/04 A3033 RMK AO2 T00560039
KPUB 120453Z AUTO 13006KT 10SM SCT015 OVC022 06/04 A3034 RMK AO2 SLP273 T00560039
KPUB 120439Z AUTO 13005KT 10SM BKN022 OVC046 06/04 A3034 RMK AO2 T00560039
KPUB 120415Z AUTO 12006KT 10SM SCT024 OVC047 06/04 A3034 RMK AO2 T00560039
KPUB 120353Z 13006KT 10SM SCT018 OVC024 06/04 A3033 RMK AO2 SLP273 T00560039
KPUB 120333Z 13006KT 10SM OVC017 06/04 A3033 RMK AO2 T00610039
KPUB 120321Z 12006KT 10SM BKN014 OVC020 06/04 A3033 RMK AO2 T00610039
KPUB 120253Z 11006KT 10SM BKN015 OVC021 06/04 A3032 RMK AO2 SLP267 T00610039 53018
KPUB 120153Z 11006KT 10SM SCT018 OVC026 06/04 A3030 RMK AO2 SLP261 T00610039
KPUB 120053Z 09007KT 10SM FEW011 BKN021 OVC025 07/04 A3027 RMK AO2 SLP252 T00670039
KPUB 120020Z 08007KT 10SM FEW012 BKN022 OVC055 07/04 A3026 RMK AO2 T00670039
KPUB 112353Z 06009KT 10SM FEW017 BKN033 OVC055 07/04 A3026 RMK AO2 RAE46 SLP248 P0001 60005 T00670039 10067 20044 51014
KPUB 112253Z 05007KT 5SM -RA BR FEW011 BKN016 OVC027 06/04 A3024 RMK AO2 RAB07 SLP240 P0004 T00610039
KPUB 112229Z 04009KT 5SM -RA BR SCT009 OVC016 06/04 A3023 RMK AO2 RAB07 P0003 T00560039
KPUB 112200Z 08009KT 6SM BR BKN009 OVC014 06/04 A3021 RMK AO2 CIG 006V011 T00560039
KPUB 112153Z 08007KT 2 1/2SM BR BKN008 OVC014 06/04 A3021 RMK AO2 RAE01 CIG 005V011 SLP234 P0000 T00560039
KPUB 112143Z 09008KT 2 1/2SM BR BKN008 OVC014 06/04 A3021 RMK AO2 RAE01 P0000 T00560039
KPUB 112128Z 10007KT 2 1/2SM R08R/6000VP6000FT BR FEW006 OVC012 06/04 A3020 RMK AO2 RAE01 P0000 T00560039
KPUB 112118Z 12011KT 2 1/2SM R08R/5000VP6000FT BR BKN008 OVC013 06/04 A3020 RMK AO2 RAE01 CIG 006V010 P0000 T00560039